createdAt,value
2022-12-20T00:01:29.051Z,29.10
2022-12-20T00:03:57.819Z,27.50
2022-12-20T00:06:25.107Z,28.70
2022-12-20T00:09:00.700Z,26.97
2022-12-20T00:11:28.269Z,29.23
2022-12-20T00:13:55.433Z,27.60
2022-12-20T00:16:24.592Z,25.17
2022-12-20T00:18:56.837Z,26.47
2022-12-20T00:21:24.561Z,24.97
2022-12-20T00:23:52.731Z,26.33
2022-12-20T00:26:22.623Z,26.17
2022-12-20T00:28:49.431Z,26.60
2022-12-20T00:31:18.970Z,25.20
2022-12-20T00:33:48.499Z,25.10
2022-12-20T00:36:16.307Z,22.13
2022-12-20T00:38:46.444Z,25.30
2022-12-20T00:41:15.907Z,25.33
2022-12-20T00:43:42.774Z,24.97
2022-12-20T00:46:11.410Z,25.70
2022-12-20T00:48:38.632Z,25.47
2022-12-20T00:51:09.184Z,25.20
2022-12-20T00:53:36.892Z,27.00
2022-12-20T00:56:05.234Z,25.80
2022-12-20T00:58:36.833Z,25.20
2022-12-20T01:01:04.632Z,24.07
2022-12-20T01:03:32.068Z,25.13
2022-12-20T01:06:01.601Z,24.00
2022-12-20T01:08:30.187Z,23.70
2022-12-20T01:11:08.627Z,24.60
2022-12-20T01:13:37.787Z,26.53
2022-12-20T01:16:10.236Z,24.30
2022-12-20T01:18:36.990Z,24.27
2022-12-20T01:21:10.115Z,26.40
2022-12-20T01:23:37.479Z,23.30
2022-12-20T01:26:06.002Z,23.20
2022-12-20T01:28:33.111Z,23.63
2022-12-20T01:31:00.192Z,26.33
2022-12-20T01:33:27.498Z,24.23
2022-12-20T01:35:59.592Z,24.70
2022-12-20T01:38:26.955Z,26.37
2022-12-20T01:40:54.871Z,25.70
2022-12-20T01:43:22.667Z,26.77
2022-12-20T01:45:49.657Z,26.20
2022-12-20T01:48:25.635Z,26.07
2022-12-20T01:50:53.223Z,23.93
2022-12-20T01:53:23.261Z,25.33
2022-12-20T01:55:50.100Z,25.30
2022-12-20T01:58:19.420Z,26.20
2022-12-20T02:00:47.030Z,26.20
2022-12-20T02:03:15.354Z,25.37
2022-12-20T02:05:47.703Z,27.53
2022-12-20T02:08:17.760Z,27.37
2022-12-20T02:10:44.541Z,23.93
2022-12-20T02:13:37.954Z,25.73
2022-12-20T02:16:05.118Z,28.53
2022-12-20T02:18:45.943Z,30.40
2022-12-20T02:21:29.864Z,27.70
2022-12-20T02:24:17.009Z,25.10
2022-12-20T02:26:55.482Z,26.07
2022-12-20T02:29:38.868Z,25.27
2022-12-20T02:32:12.970Z,24.73
2022-12-20T02:34:41.799Z,22.93
2022-12-20T02:37:09.621Z,23.93
2022-12-20T02:39:39.654Z,26.13
2022-12-20T02:42:10.526Z,24.97
2022-12-20T02:45:17.156Z,25.17
2022-12-20T02:47:58.656Z,25.03
2022-12-20T02:50:36.512Z,25.00
2022-12-20T02:53:04.577Z,24.60
2022-12-20T02:55:45.027Z,24.90
2022-12-20T02:58:37.673Z,25.83
2022-12-20T03:01:13.732Z,22.67
2022-12-20T03:03:41.105Z,23.83
2022-12-20T03:06:08.239Z,24.03
2022-12-20T03:08:35.760Z,24.67
2022-12-20T03:11:02.474Z,23.40
2022-12-20T03:13:29.304Z,26.53
2022-12-20T03:15:58.108Z,21.93
2022-12-20T03:18:24.839Z,22.50
2022-12-20T03:20:51.692Z,23.93
2022-12-20T03:23:18.351Z,26.27
2022-12-20T03:25:45.158Z,25.30
2022-12-20T03:28:11.953Z,22.83
2022-12-20T03:30:38.843Z,22.30
2022-12-20T03:33:05.541Z,23.97
2022-12-20T03:35:32.332Z,19.97
2022-12-20T03:37:59.621Z,22.27
2022-12-20T03:40:26.348Z,21.07
2022-12-20T03:42:53.071Z,19.50
2022-12-20T03:45:19.869Z,22.47
2022-12-20T03:47:46.530Z,20.47
2022-12-20T03:50:13.711Z,22.30
2022-12-20T03:52:40.406Z,21.30
2022-12-20T03:55:07.978Z,20.23
2022-12-20T03:57:34.636Z,22.37
2022-12-20T04:00:01.521Z,22.27
2022-12-20T04:02:29.638Z,21.83
2022-12-20T04:04:56.373Z,21.50
2022-12-20T04:07:23.062Z,22.50
2022-12-20T04:09:49.844Z,20.70
2022-12-20T04:12:16.546Z,23.03
2022-12-20T04:14:43.287Z,23.70
2022-12-20T04:17:10.091Z,22.50
2022-12-20T04:19:36.780Z,22.77
2022-12-20T04:22:05.916Z,22.57
2022-12-20T04:24:33.111Z,20.93
2022-12-20T04:26:59.783Z,19.93
2022-12-20T04:29:29.666Z,21.13
2022-12-20T04:31:56.465Z,21.60
2022-12-20T04:34:23.192Z,19.80
2022-12-20T04:36:49.834Z,20.23
2022-12-20T04:39:16.548Z,19.83
2022-12-20T04:41:43.371Z,20.50
2022-12-20T04:44:10.012Z,20.63
2022-12-20T04:46:36.917Z,22.60
2022-12-20T04:49:03.933Z,22.80
2022-12-20T04:51:30.757Z,23.37
2022-12-20T04:53:57.837Z,21.47
2022-12-20T04:56:28.184Z,24.10
2022-12-20T04:58:57.430Z,22.80
2022-12-20T05:01:24.372Z,23.87
2022-12-20T05:03:51.448Z,26.10
2022-12-20T05:06:18.739Z,23.67
2022-12-20T05:08:45.535Z,21.17
2022-12-20T05:11:12.770Z,23.00
2022-12-20T05:13:39.736Z,19.93
2022-12-20T05:16:06.871Z,21.13
2022-12-20T05:18:33.773Z,22.30
2022-12-20T05:21:20.592Z,21.33
2022-12-20T05:24:06.556Z,20.33
2022-12-20T05:26:38.083Z,19.80
2022-12-20T05:29:06.159Z,17.90
2022-12-20T05:31:33.679Z,19.10
2022-12-20T05:34:00.694Z,19.50
2022-12-20T05:36:27.691Z,17.67
2022-12-20T05:38:58.234Z,19.73
2022-12-20T05:41:30.413Z,20.63
2022-12-20T05:43:57.355Z,21.50
2022-12-20T05:46:24.211Z,20.10
2022-12-20T05:48:50.879Z,20.43
2022-12-20T05:51:17.628Z,18.23
2022-12-20T05:53:44.745Z,21.40
2022-12-20T05:56:11.446Z,18.33
2022-12-20T05:58:38.181Z,20.70
2022-12-20T06:01:06.584Z,20.47
2022-12-20T06:03:33.382Z,19.57
2022-12-20T06:06:00.186Z,18.10
2022-12-20T06:08:27.202Z,17.17
2022-12-20T06:10:53.999Z,20.40
2022-12-20T06:13:20.870Z,20.47
2022-12-20T06:15:47.978Z,20.23
2022-12-20T06:18:14.771Z,19.47
2022-12-20T06:20:41.528Z,21.50
2022-12-20T06:23:09.647Z,20.83
2022-12-20T06:25:38.196Z,21.67
2022-12-20T06:28:05.789Z,18.43
2022-12-20T06:30:34.261Z,18.57
2022-12-20T06:33:03.061Z,16.57
2022-12-20T06:35:30.429Z,16.03
2022-12-20T06:37:57.389Z,19.03
2022-12-20T06:40:24.559Z,19.30
2022-12-20T06:42:51.207Z,19.33
2022-12-20T06:45:18.004Z,19.40
2022-12-20T06:47:44.917Z,20.23
2022-12-20T06:50:11.832Z,22.23
2022-12-20T06:52:38.529Z,20.77
2022-12-20T06:55:05.428Z,21.97
2022-12-20T06:57:33.091Z,18.73
2022-12-20T06:59:59.781Z,17.27
2022-12-20T07:02:27.942Z,19.60
2022-12-20T07:04:55.501Z,18.23
2022-12-20T07:07:22.452Z,16.13
2022-12-20T07:09:49.394Z,15.10
2022-12-20T07:12:16.186Z,16.27
2022-12-20T07:14:42.900Z,19.30
2022-12-20T07:17:10.869Z,21.70
2022-12-20T07:19:37.702Z,20.90
2022-12-20T07:22:05.647Z,19.70
2022-12-20T07:24:33.105Z,20.03
2022-12-20T07:26:59.890Z,20.77
2022-12-20T07:29:26.830Z,21.17
2022-12-20T07:31:53.703Z,23.50
2022-12-20T07:34:20.916Z,22.30
2022-12-20T07:36:47.978Z,22.83
2022-12-20T07:39:14.831Z,22.37
2022-12-20T07:41:41.879Z,20.37
2022-12-20T07:44:08.610Z,21.83
2022-12-20T07:46:35.470Z,20.53
2022-12-20T07:49:02.292Z,19.83
2022-12-20T07:51:33.047Z,21.27
2022-12-20T07:54:09.721Z,22.33
2022-12-20T07:56:41.726Z,22.67
2022-12-20T07:59:11.540Z,19.60
2022-12-20T08:01:39.144Z,19.90
2022-12-20T08:04:12.882Z,21.47
2022-12-20T08:06:40.937Z,23.23
2022-12-20T08:09:09.222Z,21.77
2022-12-20T08:11:37.211Z,23.57
2022-12-20T08:14:06.780Z,21.03
2022-12-20T08:16:33.882Z,18.93
2022-12-20T08:19:01.085Z,17.73
2022-12-20T08:21:29.140Z,19.10
2022-12-20T08:23:56.731Z,15.87
2022-12-20T08:26:23.537Z,16.53
2022-12-20T08:28:50.263Z,14.90
2022-12-20T08:31:17.176Z,16.13
2022-12-20T08:33:46.933Z,15.33
2022-12-20T08:36:14.563Z,14.00
2022-12-20T08:38:41.668Z,14.43
2022-12-20T08:41:11.368Z,14.33
2022-12-20T08:43:39.121Z,15.87
2022-12-20T08:46:07.146Z,18.60
2022-12-20T08:48:34.220Z,15.50
2022-12-20T08:51:04.318Z,14.67
2022-12-20T08:53:31.739Z,15.87
2022-12-20T08:56:05.241Z,17.17
2022-12-20T08:58:32.141Z,14.40
2022-12-20T09:01:06.376Z,16.37
2022-12-20T09:03:34.979Z,17.17
2022-12-20T09:06:04.960Z,15.97
2022-12-20T09:08:31.732Z,17.70
2022-12-20T09:11:06.547Z,16.00
2022-12-20T09:13:39.517Z,16.53
2022-12-20T09:16:10.817Z,16.27
2022-12-20T09:18:37.704Z,15.10
2022-12-20T09:21:06.043Z,15.57
2022-12-20T09:23:34.992Z,15.57
2022-12-20T09:26:04.063Z,15.40
2022-12-20T09:28:31.923Z,11.90
2022-12-20T09:31:00.489Z,14.00
2022-12-20T09:33:28.789Z,11.93
2022-12-20T09:35:55.463Z,12.20
2022-12-20T09:38:22.463Z,10.70
2022-12-20T09:40:51.583Z,11.13
2022-12-20T09:43:19.094Z,11.27
2022-12-20T09:45:48.679Z,8.93
2022-12-20T09:48:20.105Z,8.40
2022-12-20T09:50:46.812Z,9.40
2022-12-20T09:53:22.621Z,8.77
2022-12-20T09:56:05.893Z,9.73
2022-12-20T09:58:46.442Z,7.97
2022-12-20T10:01:38.846Z,7.53
2022-12-20T10:04:21.951Z,8.10
2022-12-20T10:07:15.923Z,8.53
2022-12-20T10:09:57.661Z,9.00
2022-12-20T10:12:46.813Z,9.23
2022-12-20T10:15:37.990Z,8.93
2022-12-20T10:18:42.191Z,8.17
2022-12-20T10:21:12.061Z,9.13
2022-12-20T10:24:02.307Z,9.00
2022-12-20T10:26:30.319Z,8.17
2022-12-20T10:28:57.142Z,8.83
2022-12-20T10:31:25.257Z,8.40
2022-12-20T10:33:52.057Z,7.90
2022-12-20T10:36:33.561Z,9.27
2022-12-20T10:39:10.273Z,8.63
2022-12-20T10:41:40.067Z,8.13
2022-12-20T10:44:27.398Z,8.30
2022-12-20T10:46:59.697Z,7.00
2022-12-20T10:49:32.646Z,8.20
2022-12-20T10:52:12.061Z,8.93
2022-12-20T10:54:43.925Z,9.63
2022-12-20T10:57:22.830Z,10.00
2022-12-20T10:59:56.322Z,9.57
2022-12-20T11:02:39.521Z,11.30
2022-12-20T11:05:11.003Z,9.60
2022-12-20T11:08:32.998Z,11.47
2022-12-20T11:10:41.704Z,10.93
2022-12-20T11:13:25.628Z,10.80
2022-12-20T11:15:57.173Z,8.63
2022-12-20T11:18:39.770Z,12.17
2022-12-20T11:21:11.130Z,9.83
2022-12-20T11:23:48.475Z,10.40
2022-12-20T11:26:37.006Z,10.77
2022-12-20T11:29:26.663Z,11.33
2022-12-20T11:32:30.573Z,11.10
2022-12-20T11:35:15.164Z,12.60
2022-12-20T11:38:12.057Z,14.57
2022-12-20T11:40:48.423Z,16.03
2022-12-20T11:43:26.968Z,14.47
2022-12-20T11:46:49.113Z,14.03
2022-12-20T11:49:21.834Z,18.53
2022-12-20T11:51:52.724Z,17.83
2022-12-20T11:54:44.991Z,12.53
2022-12-20T11:57:23.315Z,12.13
2022-12-20T12:00:02.737Z,14.40
2022-12-20T12:02:44.110Z,18.40
2022-12-20T12:05:32.656Z,15.13
2022-12-20T12:08:07.222Z,15.80
2022-12-20T12:10:42.723Z,14.23
2022-12-20T12:13:23.593Z,14.83
2022-12-20T12:16:05.244Z,14.40
2022-12-20T12:18:34.276Z,14.93
2022-12-20T12:21:09.075Z,14.33
2022-12-20T12:23:57.949Z,13.27
2022-12-20T12:26:27.679Z,12.83
2022-12-20T12:29:00.473Z,11.57
2022-12-20T12:31:44.278Z,12.43
2022-12-20T12:34:36.041Z,12.73
2022-12-20T12:37:28.636Z,13.07
2022-12-20T12:40:16.454Z,13.50
2022-12-20T12:43:04.826Z,13.40
2022-12-20T12:45:44.960Z,14.67
2022-12-20T12:48:18.925Z,14.50
2022-12-20T12:50:52.862Z,19.73
2022-12-20T12:53:27.319Z,14.50
2022-12-20T12:56:12.919Z,15.70
2022-12-20T12:58:48.554Z,13.90
2022-12-20T13:01:50.832Z,13.93
2022-12-20T13:04:20.852Z,15.20
2022-12-20T13:06:47.546Z,12.53
2022-12-20T13:09:26.366Z,12.30
2022-12-20T13:12:00.985Z,11.87
2022-12-20T13:14:30.106Z,12.60
2022-12-20T13:17:12.274Z,12.17
2022-12-20T13:19:53.321Z,11.53
2022-12-20T13:22:23.273Z,11.97
2022-12-20T13:24:58.797Z,13.50
2022-12-20T13:27:39.194Z,12.30
2022-12-20T13:30:12.123Z,12.50
2022-12-20T13:32:47.993Z,14.23
2022-12-20T13:35:27.954Z,12.70
2022-12-20T13:38:09.472Z,12.50
2022-12-20T13:40:47.113Z,13.17
2022-12-20T13:43:28.093Z,11.70
2022-12-20T13:46:09.917Z,15.73
2022-12-20T13:48:46.754Z,13.80
2022-12-20T13:51:22.485Z,10.60
2022-12-20T13:53:54.758Z,9.10
2022-12-20T13:56:27.491Z,8.27
2022-12-20T13:58:56.231Z,9.93
2022-12-20T14:01:25.101Z,10.03
2022-12-20T14:03:53.538Z,10.67
2022-12-20T14:06:26.825Z,9.90
2022-12-20T14:08:54.228Z,10.40
2022-12-20T14:11:30.083Z,10.00
2022-12-20T14:13:59.941Z,9.87
2022-12-20T14:16:28.943Z,9.20
2022-12-20T14:19:05.412Z,12.60
2022-12-20T14:21:36.127Z,10.57
2022-12-20T14:24:03.658Z,10.03
2022-12-20T14:26:38.711Z,10.10
2022-12-20T14:29:12.434Z,11.97
2022-12-20T14:31:42.656Z,11.50
2022-12-20T14:34:10.453Z,10.80
2022-12-20T14:36:42.448Z,10.63
2022-12-20T14:39:28.995Z,10.70
2022-12-20T14:42:19.304Z,11.80
2022-12-20T14:44:47.251Z,11.97
2022-12-20T14:47:26.387Z,11.60
2022-12-20T14:50:00.192Z,13.10
2022-12-20T14:52:33.207Z,14.13
2022-12-20T14:55:08.195Z,15.00
2022-12-20T14:57:36.065Z,16.83
2022-12-20T15:00:14.943Z,14.43
2022-12-20T15:02:53.619Z,15.17
2022-12-20T15:05:36.217Z,16.70
2022-12-20T15:08:14.687Z,16.60
2022-12-20T15:10:53.976Z,15.67
2022-12-20T15:13:25.170Z,14.33
2022-12-20T15:15:51.935Z,13.30
2022-12-20T15:18:20.603Z,12.70
2022-12-20T15:21:02.447Z,12.90
2022-12-20T15:23:29.783Z,12.63
2022-12-20T15:25:56.581Z,10.63
2022-12-20T15:28:25.210Z,11.77
2022-12-20T15:30:53.663Z,12.93
2022-12-20T15:33:23.015Z,13.10
2022-12-20T15:35:49.870Z,12.77
2022-12-20T15:38:25.411Z,10.97
2022-12-20T15:41:05.295Z,12.33
2022-12-20T15:43:39.012Z,12.53
2022-12-20T15:46:06.067Z,14.27
2022-12-20T15:48:32.874Z,14.43
2022-12-20T15:50:59.944Z,17.97
2022-12-20T15:53:34.019Z,15.60
2022-12-20T15:56:01.043Z,12.03
2022-12-20T15:58:28.030Z,12.23
2022-12-20T16:00:58.655Z,15.70
2022-12-20T16:03:30.488Z,12.03
2022-12-20T16:05:58.036Z,11.37
2022-12-20T16:08:24.845Z,12.80
2022-12-20T16:10:52.474Z,12.37
2022-12-20T16:13:25.195Z,13.87
2022-12-20T16:15:52.741Z,13.83
2022-12-20T16:18:19.676Z,14.90
2022-12-20T16:20:46.438Z,15.13
2022-12-20T16:23:22.717Z,14.07
2022-12-20T16:25:50.843Z,12.70
2022-12-20T16:28:18.082Z,13.17
2022-12-20T16:30:50.921Z,13.20
2022-12-20T16:33:21.313Z,14.27
2022-12-20T16:35:48.459Z,14.57
2022-12-20T16:38:15.217Z,14.90
2022-12-20T16:40:42.139Z,14.23
2022-12-20T16:43:15.375Z,12.27
2022-12-20T16:45:42.233Z,14.73
2022-12-20T16:48:09.195Z,14.50
2022-12-20T16:50:41.522Z,13.70
2022-12-20T16:53:12.811Z,14.80
2022-12-20T16:55:40.322Z,12.90
2022-12-20T16:58:07.206Z,14.77
2022-12-20T17:00:34.050Z,13.00
2022-12-20T17:03:01.004Z,12.47
2022-12-20T17:05:30.982Z,12.43
2022-12-20T17:07:58.303Z,12.40
2022-12-20T17:10:27.043Z,12.50
2022-12-20T17:12:54.516Z,12.80
2022-12-20T17:15:27.735Z,11.30
2022-12-20T17:17:55.671Z,11.40
2022-12-20T17:20:24.875Z,12.43
2022-12-20T17:25:40.216Z,11.70
2022-12-20T17:28:06.964Z,12.63
2022-12-20T17:30:33.712Z,11.27
2022-12-20T17:33:00.561Z,14.37
2022-12-20T17:35:30.522Z,12.10
2022-12-20T17:37:58.069Z,12.57
2022-12-20T17:40:25.959Z,12.83
2022-12-20T17:42:54.375Z,12.80
2022-12-20T17:45:31.516Z,12.40
2022-12-20T17:47:58.895Z,13.03
2022-12-20T17:50:26.493Z,13.17
2022-12-20T17:52:54.680Z,12.23
2022-12-20T17:55:27.297Z,12.40
2022-12-20T17:57:55.321Z,10.83
2022-12-20T18:00:34.520Z,11.93
2022-12-20T18:03:03.473Z,11.20
2022-12-20T18:05:30.477Z,10.93
2022-12-20T18:07:57.221Z,11.90
2022-12-20T18:10:24.395Z,10.00
2022-12-20T18:12:51.505Z,10.73
2022-12-20T18:15:20.010Z,10.10
2022-12-20T18:17:46.923Z,10.63
2022-12-20T18:20:13.815Z,12.37
2022-12-20T18:22:40.767Z,12.73
2022-12-20T18:25:08.551Z,12.20
2022-12-20T18:27:40.554Z,13.00
2022-12-20T18:30:08.550Z,12.77
2022-12-20T18:32:35.561Z,13.43
2022-12-20T18:35:02.344Z,14.60
2022-12-20T18:37:29.526Z,12.83
2022-12-20T18:39:56.398Z,13.13
2022-12-20T18:42:23.314Z,12.27
2022-12-20T18:44:50.112Z,12.27
2022-12-20T18:47:16.912Z,13.63
2022-12-20T18:49:43.873Z,11.50
2022-12-20T18:52:10.740Z,13.37
2022-12-20T18:54:37.435Z,14.07
2022-12-20T18:57:06.507Z,15.20
2022-12-20T18:59:34.217Z,12.50
2022-12-20T19:02:01.683Z,14.20
2022-12-20T19:04:28.580Z,12.53
2022-12-20T19:06:56.510Z,11.43
2022-12-20T19:09:23.313Z,11.63
2022-12-20T19:11:56.194Z,11.00
2022-12-20T19:14:23.362Z,11.50
2022-12-20T19:16:51.771Z,12.00
2022-12-20T19:19:18.657Z,11.20
2022-12-20T19:21:45.418Z,9.83
2022-12-20T19:24:12.440Z,10.20
2022-12-20T19:26:39.757Z,9.80
2022-12-20T19:29:06.812Z,12.93
2022-12-20T19:31:36.676Z,11.70
2022-12-20T19:34:07.632Z,12.07
2022-12-20T19:36:43.811Z,11.07
2022-12-20T19:39:20.463Z,12.17
2022-12-20T19:42:15.513Z,11.63
2022-12-20T19:44:35.658Z,10.90
2022-12-20T19:47:06.027Z,11.90
2022-12-20T19:49:33.580Z,12.43
2022-12-20T19:52:00.591Z,15.30
2022-12-20T19:54:27.544Z,13.93
2022-12-20T19:56:54.617Z,13.70
2022-12-20T19:59:21.497Z,15.83
2022-12-20T20:01:48.455Z,15.17
2022-12-20T20:04:15.327Z,18.77
2022-12-20T20:06:42.659Z,15.77
2022-12-20T20:09:09.403Z,14.50
2022-12-20T20:11:36.461Z,16.60
2022-12-20T20:14:03.972Z,17.37
2022-12-20T20:16:30.892Z,17.37
2022-12-20T20:18:57.907Z,16.63
2022-12-20T20:21:24.822Z,16.90
2022-12-20T20:23:52.628Z,18.50
2022-12-20T20:26:22.273Z,16.33
2022-12-20T20:28:49.447Z,17.07
2022-12-20T20:31:18.584Z,16.57
2022-12-20T20:33:46.161Z,17.73
2022-12-20T20:36:15.498Z,19.00
2022-12-20T20:38:42.363Z,37.33
2022-12-20T20:41:09.964Z,23.63
2022-12-20T20:43:37.868Z,25.90
2022-12-20T20:46:06.541Z,32.07
2022-12-20T20:48:33.712Z,20.50
2022-12-20T20:51:00.856Z,29.87
2022-12-20T20:53:32.972Z,25.10
2022-12-20T20:56:01.342Z,22.77
2022-12-20T20:58:28.130Z,22.00
2022-12-20T21:01:00.154Z,34.27
2022-12-20T21:03:28.810Z,27.77
2022-12-20T21:08:43.191Z,16.17
2022-12-20T21:11:10.437Z,16.83
2022-12-20T21:13:37.419Z,20.00
2022-12-20T21:16:13.013Z,21.23
2022-12-20T21:18:40.021Z,37.33
2022-12-20T21:21:12.509Z,20.23
2022-12-20T21:23:43.503Z,17.10
2022-12-20T21:26:10.371Z,12.90
2022-12-20T21:28:37.105Z,13.50
2022-12-20T21:31:06.568Z,12.97
2022-12-20T21:33:33.372Z,12.47
2022-12-20T21:36:01.659Z,12.50
2022-12-20T21:38:28.502Z,11.43
2022-12-20T21:41:07.130Z,12.27
2022-12-20T21:43:33.993Z,12.97
2022-12-20T21:46:01.055Z,12.70
2022-12-20T21:48:29.589Z,13.10
2022-12-20T21:51:05.029Z,16.90
2022-12-20T21:53:33.158Z,14.90
2022-12-20T21:56:00.849Z,15.83
2022-12-20T21:58:29.759Z,18.30
2022-12-20T22:00:57.299Z,18.33
2022-12-20T22:03:25.409Z,22.03
2022-12-20T22:05:54.873Z,20.10
2022-12-20T22:08:22.975Z,20.10
2022-12-20T22:10:58.682Z,20.27
2022-12-20T22:13:25.454Z,20.70
2022-12-20T22:15:52.308Z,19.77
2022-12-20T22:18:19.325Z,18.60
2022-12-20T22:20:47.775Z,18.03
2022-12-20T22:23:14.498Z,18.67
2022-12-20T22:25:41.630Z,20.23
2022-12-20T22:28:08.767Z,21.50
2022-12-20T22:30:39.677Z,18.80
2022-12-20T22:33:06.355Z,20.20
2022-12-20T22:35:33.147Z,19.77
2022-12-20T22:37:59.950Z,17.97
2022-12-20T22:40:26.720Z,18.13
2022-12-20T22:42:53.537Z,15.97
2022-12-20T22:45:20.312Z,15.53
2022-12-20T22:47:47.097Z,15.50
2022-12-20T22:50:13.851Z,16.80
2022-12-20T22:52:40.625Z,16.83
2022-12-20T22:55:07.747Z,15.07
2022-12-20T22:57:35.588Z,16.07
2022-12-20T23:00:03.140Z,17.93
2022-12-20T23:02:30.199Z,15.93
2022-12-20T23:04:57.108Z,17.40
2022-12-20T23:07:23.863Z,16.03
2022-12-20T23:09:50.555Z,15.20
2022-12-20T23:12:35.727Z,15.70
2022-12-20T23:15:21.278Z,14.50
2022-12-20T23:17:48.084Z,13.50
2022-12-20T23:20:33.595Z,15.03
2022-12-20T23:23:00.375Z,13.57
2022-12-20T23:25:27.155Z,15.17
2022-12-20T23:27:53.889Z,14.50
2022-12-20T23:30:23.584Z,16.30
2022-12-20T23:32:50.457Z,14.00
2022-12-20T23:35:19.446Z,15.10
2022-12-20T23:37:46.989Z,15.40
2022-12-20T23:40:16.303Z,15.60
2022-12-20T23:42:43.498Z,15.93
2022-12-20T23:45:10.754Z,15.70
2022-12-20T23:47:37.487Z,15.70
2022-12-20T23:50:04.764Z,15.47
2022-12-20T23:52:31.435Z,17.60
2022-12-20T23:54:58.145Z,16.93
2022-12-20T23:57:24.882Z,17.20
2022-12-20T23:59:51.631Z,14.40
